Time;durP1;ratioP1;P1;durP2;ratioP2;P2;SDS_P1;SDS_P2;PMS_P1;PMS_P2;Temp;Humidity;BMP_temperature;BMP_pressure;BME280_temperature;BME280_humidity;BME280_pressure;Samples;Min_cycle;Max_cycle;Signal;HPM_P1;HPM_P2
2022/03/09 00:01:21;;;;;;;5.13;2.00;;;;;;;12.73;42.63;101784.09;5035664;28;20482;-75
2022/03/09 00:03:49;;;;;;;6.22;1.95;;;;;;;12.67;42.75;101775.22;5049121;28;20091;-77
2022/03/09 00:06:17;;;;;;;4.03;1.92;;;;;;;12.60;42.49;101780.97;5049160;28;20517;-76
2022/03/09 00:08:46;;;;;;;5.45;1.75;;;;;;;12.54;42.72;101774.75;5051972;28;20052;-78
2022/03/09 00:11:14;;;;;;;3.95;1.83;;;;;;;12.49;44.02;101767.63;5050030;28;20064;-76
2022/03/09 00:13:42;;;;;;;5.03;1.90;;;;;;;12.44;43.44;101762.25;5035583;28;20135;-73
2022/03/09 00:16:13;;;;;;;3.60;2.08;;;;;;;12.39;44.01;101755.09;5049174;28;20051;-74
2022/03/09 00:18:41;;;;;;;6.43;2.00;;;;;;;12.34;44.09;101748.03;5048377;28;20200;-73
2022/03/09 00:21:10;;;;;;;4.47;2.20;;;;;;;12.28;44.10;101747.81;5049939;28;20041;-76
2022/03/09 00:23:38;;;;;;;4.72;1.55;;;;;;;12.24;44.89;101753.69;5048833;28;20056;-76
2022/03/09 00:26:06;;;;;;;4.13;1.70;;;;;;;12.22;45.00;101744.97;5048953;28;20835;-75
2022/03/09 00:28:35;;;;;;;6.03;1.80;;;;;;;12.23;45.42;101743.25;5049375;28;20049;-75
2022/03/09 00:31:03;;;;;;;3.30;1.70;;;;;;;12.21;45.31;101750.09;5049300;28;20140;-74
2022/03/09 00:33:34;;;;;;;4.75;1.90;;;;;;;12.19;44.75;101736.19;5049184;28;20056;-73
2022/03/09 00:36:03;;;;;;;5.35;2.20;;;;;;;12.17;45.64;101740.44;5037185;28;20131;-76
2022/03/09 00:38:31;;;;;;;5.35;2.22;;;;;;;12.17;45.46;101745.63;5046794;28;20199;-75
2022/03/09 00:41:01;;;;;;;4.63;2.80;;;;;;;12.13;45.89;101742.00;5049204;28;20049;-75
2022/03/09 00:43:29;;;;;;;6.32;1.90;;;;;;;12.11;45.83;101743.66;5048673;28;20499;-74
2022/03/09 00:45:58;;;;;;;6.07;1.85;;;;;;;12.09;45.28;101737.53;5041426;28;20045;-77
2022/03/09 00:48:26;;;;;;;9.32;2.03;;;;;;;12.07;46.71;101736.56;5043312;28;20103;-77
2022/03/09 00:50:56;;;;;;;3.60;1.77;;;;;;;12.02;45.41;101727.75;5034522;28;20041;-77
2022/03/09 00:53:24;;;;;;;6.45;2.15;;;;;;;12.03;46.15;101730.41;5048237;28;20140;-77
2022/03/09 00:55:53;;;;;;;4.35;1.65;;;;;;;12.03;46.68;101735.59;5049065;28;20060;-76
2022/03/09 00:58:21;;;;;;;7.15;1.90;;;;;;;12.04;47.04;101739.06;5048678;28;20084;-78
2022/03/09 01:00:49;;;;;;;9.27;1.83;;;;;;;12.02;47.11;101722.56;5048606;28;20053;-76
2022/03/09 01:03:18;;;;;;;5.18;2.40;;;;;;;12.03;46.15;101726.94;5048427;28;20056;-77
2022/03/09 01:05:46;;;;;;;4.70;1.85;;;;;;;12.03;47.14;101720.03;5051537;28;20049;-74
2022/03/09 01:08:16;;;;;;;6.63;2.33;;;;;;;12.02;47.09;101722.56;5048296;28;20061;-74
2022/03/09 01:10:45;;;;;;;4.85;2.05;;;;;;;12.02;46.97;101720.84;5048496;28;20049;-74
2022/03/09 01:13:13;;;;;;;6.10;1.95;;;;;;;12.01;46.31;101724.28;5047772;28;20135;-74
2022/03/09 01:15:41;;;;;;;5.18;1.90;;;;;;;11.98;46.33;101711.19;5046564;28;20154;-74
2022/03/09 01:18:10;;;;;;;6.70;2.08;;;;;;;11.95;46.89;101717.13;5048599;28;20085;-74
2022/03/09 01:20:38;;;;;;;3.20;1.95;;;;;;;11.97;45.70;101713.72;5048090;28;20053;-73
2022/03/09 01:23:07;;;;;;;3.50;1.80;;;;;;;11.98;47.00;101710.28;5047824;28;20550;-73
2022/03/09 01:25:37;;;;;;;4.05;1.83;;;;;;;11.97;47.33;101703.34;5048070;28;20049;-73
2022/03/09 01:28:06;;;;;;;6.45;1.95;;;;;;;11.93;47.80;101717.88;5048000;28;20049;-73
2022/03/09 01:30:34;;;;;;;3.35;1.70;;;;;;;11.90;48.15;101716.06;5047073;28;20509;-74
2022/03/09 01:33:02;;;;;;;6.80;1.77;;;;;;;11.86;47.69;101721.91;5041575;28;20431;-72
2022/03/09 01:35:31;;;;;;;4.65;1.77;;;;;;;11.85;48.61;101722.75;5027817;28;20132;-72
2022/03/09 01:37:59;;;;;;;6.50;1.90;;;;;;;11.82;48.22;101717.44;5028272;28;20048;-72
2022/03/09 01:40:28;;;;;;;3.30;1.60;;;;;;;11.80;48.77;101716.50;5028241;28;20053;-72
2022/03/09 01:42:58;;;;;;;5.40;1.67;;;;;;;11.78;48.47;101707.78;5027213;28;20407;-72
2022/03/09 01:45:26;;;;;;;6.93;2.25;;;;;;;11.75;49.06;101707.66;5024412;28;20133;-74
2022/03/09 01:47:55;;;;;;;7.90;1.98;;;;;;;11.73;48.76;101704.13;5008069;28;20056;-73
2022/03/09 01:50:23;;;;;;;4.95;1.75;;;;;;;11.70;49.22;101699.69;5020519;28;20132;-74
2022/03/09 01:52:53;;;;;;;8.07;2.08;;;;;;;11.69;49.33;101697.03;5021330;28;20079;-72
2022/03/09 01:55:21;;;;;;;7.38;1.92;;;;;;;11.67;49.56;101696.09;5008090;28;20046;-74
2022/03/09 01:57:50;;;;;;;3.20;1.90;;;;;;;11.64;49.66;101699.44;5008219;28;20202;-71
2022/03/09 02:00:21;;;;;;;6.32;1.90;;;;;;;11.62;48.88;101701.09;5007810;28;20634;-72
2022/03/09 02:02:50;;;;;;;6.32;2.15;;;;;;;11.58;49.06;101701.78;5010418;28;20057;-72
2022/03/09 02:05:18;;;;;;;5.80;2.15;;;;;;;11.55;49.84;101685.25;5012533;28;20145;-70
2022/03/09 02:10:32;;;;;;;7.25;2.28;;;;;;;11.49;50.82;101688.44;5008555;28;20454;-71
2022/03/09 02:13:00;;;;;;;5.80;2.10;;;;;;;11.47;50.07;101680.59;5026429;28;20415;-71
2022/03/09 02:15:31;;;;;;;4.25;2.20;;;;;;;11.44;50.80;101679.59;5016635;28;20065;-71
2022/03/09 02:18:00;;;;;;;5.88;2.33;;;;;;;11.44;51.58;101689.97;5027607;28;20484;-71
2022/03/09 02:20:31;;;;;;;4.95;1.73;;;;;;;11.41;51.37;101690.75;5027738;28;20045;-72
2022/03/09 02:23:01;;;;;;;5.82;1.90;;;;;;;11.38;51.52;101689.72;5013906;28;20057;-73
2022/03/09 02:25:29;;;;;;;5.00;1.73;;;;;;;11.36;50.46;101692.25;5028101;28;20053;-73
2022/03/09 02:27:58;;;;;;;4.38;2.10;;;;;;;11.32;51.18;101687.78;5027677;28;20041;-71
2022/03/09 02:30:26;;;;;;;7.00;1.65;;;;;;;11.23;51.29;101677.03;5028050;28;20050;-71
2022/03/09 02:32:55;;;;;;;2.30;1.38;;;;;;;11.26;51.02;101684.91;5028267;28;20140;-70
2022/03/09 02:35:23;;;;;;;3.47;1.58;;;;;;;11.24;51.44;101683.97;5021275;28;20082;-71
2022/03/09 02:37:51;;;;;;;4.45;2.17;;;;;;;11.23;51.75;101683.09;5004888;28;20153;-70
2022/03/09 02:40:22;;;;;;;4.95;1.65;;;;;;;11.21;51.61;101687.31;5007283;28;20061;-71
2022/03/09 02:42:50;;;;;;;2.72;1.45;;;;;;;11.17;51.43;101689.72;5017208;28;20054;-70
2022/03/09 02:45:19;;;;;;;7.03;1.95;;;;;;;11.06;52.19;101666.84;5026979;28;20038;-71
2022/03/09 02:47:48;;;;;;;7.57;1.60;;;;;;;11.09;51.57;101673.84;5010224;28;20042;-71
2022/03/09 02:50:17;;;;;;;5.07;1.80;;;;;;;11.04;52.62;101673.66;5015506;28;20049;-71
2022/03/09 02:52:46;;;;;;;5.63;1.90;;;;;;;11.02;52.11;101671.84;5012758;28;20050;-71
2022/03/09 02:55:15;;;;;;;3.67;1.80;;;;;;;10.98;52.88;101673.41;5014513;28;20045;-72
2022/03/09 02:57:45;;;;;;;8.70;1.73;;;;;;;10.94;52.81;101681.84;5031509;28;20080;-71
2022/03/09 03:00:14;;;;;;;5.20;2.03;;;;;;;10.89;52.94;101678.19;5033088;28;20053;-71
2022/03/09 03:02:43;;;;;;;5.22;1.73;;;;;;;10.83;53.44;101677.91;5030447;28;20045;-71
2022/03/09 03:05:12;;;;;;;6.90;1.67;;;;;;;10.78;53.79;101669.94;5029740;28;20514;-71
2022/03/09 03:07:40;;;;;;;3.97;1.85;;;;;;;10.71;53.98;101672.22;5030093;28;20050;-71
2022/03/09 03:10:09;;;;;;;7.43;1.67;;;;;;;10.65;53.93;101681.50;5029585;28;20068;-70
2022/03/09 03:12:37;;;;;;;8.48;2.30;;;;;;;10.59;54.20;101676.03;5031227;28;20499;-71
2022/03/09 03:15:11;;;;;;;10.25;1.98;;;;;;;10.51;54.50;101671.31;5027825;28;20044;-71
2022/03/09 03:17:40;;;;;;;7.40;1.70;;;;;;;10.48;54.89;101672.06;5030697;28;20085;-71
2022/03/09 03:20:09;;;;;;;5.97;1.95;;;;;;;10.41;54.66;101677.81;5031053;28;20060;-71
2022/03/09 03:22:37;;;;;;;11.32;2.17;;;;;;;10.37;55.38;101671.59;5030631;28;20072;-71
2022/03/09 03:25:06;;;;;;;4.03;1.80;;;;;;;10.33;56.05;101671.38;5030368;28;20089;-72
2022/03/09 03:27:35;;;;;;;4.28;1.50;;;;;;;10.25;55.99;101681.38;5031222;28;20136;-72
2022/03/09 03:30:03;;;;;;;3.22;1.15;;;;;;;10.20;57.25;101680.28;5030579;28;20049;-71
2022/03/09 03:32:33;;;;;;;6.00;2.03;;;;;;;10.20;57.11;101680.28;5031396;28;20333;-73
2022/03/09 03:35:02;;;;;;;7.35;2.33;;;;;;;10.18;58.05;101676.72;5027392;28;20054;-71
2022/03/09 03:37:30;;;;;;;7.88;2.42;;;;;;;10.16;58.16;101674.06;5010956;28;20131;-71
2022/03/09 03:39:58;;;;;;;4.50;2.08;;;;;;;10.14;58.53;101670.50;5025643;28;20053;-70
2022/03/09 03:42:27;;;;;;;6.07;1.90;;;;;;;10.10;58.33;101671.22;5030185;28;20049;-71
2022/03/09 03:44:55;;;;;;;7.25;2.25;;;;;;;10.06;59.25;101669.28;5030097;28;20064;-71
2022/03/09 03:47:23;;;;;;;6.97;2.45;;;;;;;10.04;59.91;101670.94;5016108;28;20053;-71
2022/03/09 03:49:54;;;;;;;5.68;1.50;;;;;;;10.00;60.81;101669.88;5030514;28;20072;-72
2022/03/09 03:52:22;;;;;;;6.32;2.33;;;;;;;9.95;62.07;101670.50;5029151;28;20080;-71
2022/03/09 03:54:50;;;;;;;3.75;1.73;;;;;;;9.88;62.42;101663.28;5030223;28;20049;-71
2022/03/09 03:57:19;;;;;;;7.97;2.50;;;;;;;9.83;62.31;101658.75;5032396;28;20050;-71
2022/03/09 03:59:47;;;;;;;9.27;2.25;;;;;;;9.80;62.99;101662.91;5030612;28;20059;-72
2022/03/09 04:02:15;;;;;;;5.47;1.85;;;;;;;9.77;63.15;101662.75;5042231;28;20080;-72
2022/03/09 04:04:44;;;;;;;7.68;2.08;;;;;;;9.74;63.24;101666.09;5031157;28;20146;-71
2022/03/09 04:07:14;;;;;;;10.75;2.45;;;;;;;9.70;63.67;101664.16;5029953;28;20057;-72
2022/03/09 04:09:42;;;;;;;7.88;2.42;;;;;;;9.69;63.57;101669.25;5029981;28;20061;-70
2022/03/09 04:12:11;;;;;;;7.45;2.40;;;;;;;9.67;64.59;101661.44;5029303;28;20053;-70
2022/03/09 04:14:40;;;;;;;6.28;2.15;;;;;;;9.66;64.66;101664.81;5029420;28;20065;-70
2022/03/09 04:17:08;;;;;;;9.02;2.13;;;;;;;9.65;64.46;101665.66;5010460;28;20137;-71
2022/03/09 04:19:37;;;;;;;4.32;2.35;;;;;;;9.64;65.35;101672.53;5016759;28;20050;-70
2022/03/09 04:22:06;;;;;;;6.93;2.15;;;;;;;9.63;64.89;101668.16;5024484;28;20072;-71
2022/03/09 04:24:43;;;;;;;6.35;1.75;;;;;;;9.60;64.83;101667.13;5010827;28;20051;-72
2022/03/09 04:27:11;;;;;;;6.10;2.20;;;;;;;9.56;64.55;101660.94;5029291;28;20046;-73
2022/03/09 04:29:39;;;;;;;9.98;1.77;;;;;;;9.57;65.48;101666.97;5029467;28;20077;-72
2022/03/09 04:32:09;;;;;;;7.32;1.25;;;;;;;9.53;66.05;101659.88;5029165;28;20140;-74
2022/03/09 04:34:37;;;;;;;7.05;2.25;;;;;;;9.52;66.32;101663.28;5029526;28;20065;-73
2022/03/09 04:37:06;;;;;;;8.68;2.15;;;;;;;9.46;65.72;101669.06;5016021;28;20077;-72
2022/03/09 04:39:34;;;;;;;7.38;2.25;;;;;;;9.44;67.14;101658.63;5029104;28;20134;-73
2022/03/09 04:42:05;;;;;;;7.68;2.10;;;;;;;9.44;66.13;101656.06;5029417;28;20049;-74
2022/03/09 04:44:33;;;;;;;3.83;2.20;;;;;;;9.40;67.18;101646.38;5048713;28;20084;-72
2022/03/09 04:47:02;;;;;;;8.75;3.08;;;;;;;9.40;66.51;101648.09;5034706;28;20113;-72
2022/03/09 04:49:30;;;;;;;4.43;1.58;;;;;;;9.36;67.76;101647.03;5048623;28;20140;-73
2022/03/09 04:51:58;;;;;;;5.95;2.22;;;;;;;9.35;67.81;101660.78;5048579;28;20072;-73
2022/03/09 04:54:27;;;;;;;6.50;1.80;;;;;;;9.38;66.99;101654.88;5048897;28;20109;-71
2022/03/09 04:56:55;;;;;;;4.95;1.75;;;;;;;9.40;67.44;101659.28;5050532;28;20120;-71
2022/03/09 04:59:25;;;;;;;5.68;1.67;;;;;;;9.42;67.70;101654.22;5050630;28;20640;-73
2022/03/09 05:01:54;;;;;;;6.88;2.10;;;;;;;9.43;67.85;101653.38;5050329;28;20076;-72
2022/03/09 05:04:22;;;;;;;4.53;1.70;;;;;;;9.42;67.45;101661.97;5048685;28;20549;-72
2022/03/09 05:06:50;;;;;;;7.43;3.25;;;;;;;9.44;67.49;101658.63;5048803;28;20055;-71
2022/03/09 05:09:18;;;;;;;4.57;1.83;;;;;;;9.45;67.82;101662.09;5048773;28;20049;-71
2022/03/09 05:11:47;;;;;;;6.43;1.88;;;;;;;9.46;68.22;101663.88;5048108;28;20053;-72
2022/03/09 05:14:15;;;;;;;5.20;1.70;;;;;;;9.44;68.82;101663.81;5048752;28;20095;-72
2022/03/09 05:16:45;;;;;;;9.73;2.00;;;;;;;9.43;68.34;101654.25;5048676;28;20076;-71
2022/03/09 05:19:14;;;;;;;6.10;2.17;;;;;;;9.46;68.59;101662.97;5048316;28;20080;-73
2022/03/09 05:21:42;;;;;;;5.75;1.90;;;;;;;9.44;69.75;101658.63;5048711;28;20048;-73
2022/03/09 05:24:10;;;;;;;9.07;2.35;;;;;;;9.41;69.48;101653.34;5047881;28;20055;-73
2022/03/09 05:26:39;;;;;;;6.47;1.70;;;;;;;9.41;69.98;101652.44;5049054;28;20068;-74
2022/03/09 05:29:07;;;;;;;4.50;1.88;;;;;;;9.37;70.60;101643.66;5047941;28;20077;-73
2022/03/09 05:31:42;;;;;;;6.50;2.17;;;;;;;9.36;71.02;101641.00;5048770;28;20160;-73
2022/03/09 05:34:12;;;;;;;6.10;1.88;;;;;;;9.35;71.91;101640.13;5035920;28;20136;-73
2022/03/09 05:36:40;;;;;;;3.63;1.45;;;;;;;9.34;72.99;101650.34;5026054;28;20038;-71
2022/03/09 05:39:09;;;;;;;7.22;1.55;;;;;;;9.32;72.72;101642.56;5011200;28;20045;-72
2022/03/09 05:41:37;;;;;;;7.53;2.03;;;;;;;9.30;74.15;101641.59;5028166;28;20059;-74
2022/03/09 05:44:06;;;;;;;6.00;2.05;;;;;;;9.29;73.44;101638.94;5028228;28;20141;-73
2022/03/09 05:46:35;;;;;;;8.45;1.77;;;;;;;9.27;73.79;101645.72;5028766;28;20073;-75
2022/03/09 05:49:04;;;;;;;12.57;2.47;;;;;;;9.25;74.34;101639.59;5008974;28;20086;-75
2022/03/09 05:51:34;;;;;;;4.50;1.30;;;;;;;9.23;75.53;101639.50;5008738;28;20049;-74
2022/03/09 05:54:02;;;;;;;6.93;1.60;;;;;;;9.19;76.14;101629.84;5019970;28;20052;-74
2022/03/09 05:56:30;;;;;;;2.95;1.40;;;;;;;9.18;75.56;101635.81;5029651;28;20065;-72
2022/03/09 05:58:59;;;;;;;6.20;1.90;;;;;;;9.18;76.35;101639.25;5030142;28;20056;-73
2022/03/09 06:01:27;;;;;;;5.97;1.60;;;;;;;9.16;75.84;101634.84;5022187;28;20090;-73
2022/03/09 06:03:55;;;;;;;6.43;1.70;;;;;;;9.13;76.99;101632.13;5017932;28;20132;-73
2022/03/09 06:06:24;;;;;;;6.95;2.15;;;;;;;9.10;77.85;101629.41;5014128;28;20080;-73
2022/03/09 06:08:54;;;;;;;9.32;1.70;;;;;;;9.05;78.71;101626.59;5028822;28;20464;-72
2022/03/09 06:11:22;;;;;;;3.63;1.55;;;;;;;9.05;78.55;101623.09;5028400;28;20045;-73
2022/03/09 06:13:51;;;;;;;4.40;1.20;;;;;;;9.05;78.61;101624.00;5028630;28;20066;-74
2022/03/09 06:16:19;;;;;;;12.10;2.40;;;;;;;9.06;78.80;101624.88;5028298;28;20095;-73
2022/03/09 06:18:49;;;;;;;5.40;1.55;;;;;;;9.04;79.76;101627.38;5032352;28;20049;-73
2022/03/09 06:21:17;;;;;;;3.70;1.45;;;;;;;9.04;79.90;101631.66;5031334;28;20121;-73
2022/03/09 06:23:45;;;;;;;5.18;1.65;;;;;;;9.01;79.59;101630.69;5031894;28;20052;-73
2022/03/09 06:26:15;;;;;;;5.07;1.63;;;;;;;8.97;80.85;101631.34;5031903;28;20064;-73
2022/03/09 06:28:44;;;;;;;4.18;1.60;;;;;;;8.96;80.75;101627.00;5032319;28;20053;-73
2022/03/09 06:31:12;;;;;;;6.35;2.05;;;;;;;8.94;81.51;101623.47;5032123;28;20068;-74
2022/03/09 06:33:41;;;;;;;4.53;1.77;;;;;;;8.98;81.87;101629.69;5041812;28;20071;-73
2022/03/09 06:36:09;;;;;;;8.27;2.35;;;;;;;8.98;82.24;101633.16;5039523;28;20056;-72
2022/03/09 06:38:38;;;;;;;3.47;1.58;;;;;;;8.93;82.48;101632.03;5051123;28;20064;-73
2022/03/09 06:41:06;;;;;;;5.35;1.63;;;;;;;8.91;81.83;101625.91;5051793;28;20128;-73
2022/03/09 06:43:36;;;;;;;6.55;1.73;;;;;;;8.95;81.71;101614.03;5051908;28;20132;-72
2022/03/09 06:46:04;;;;;;;10.43;1.80;;;;;;;8.95;83.57;101604.56;5042712;28;20049;-74
2022/03/09 06:48:33;;;;;;;8.23;1.80;;;;;;;8.92;82.85;101609.59;5046913;28;20045;-73
2022/03/09 06:51:01;;;;;;;4.45;1.77;;;;;;;8.92;82.78;101600.97;5052176;28;20103;-73
2022/03/09 06:53:30;;;;;;;5.32;2.22;;;;;;;8.93;83.13;101598.47;5052382;28;20107;-73
2022/03/09 06:55:58;;;;;;;9.27;1.80;;;;;;;8.94;82.27;101600.25;5053453;28;20067;-73
2022/03/09 06:58:27;;;;;;;8.73;2.00;;;;;;;8.92;82.86;101598.38;5052372;28;20072;-73
2022/03/09 07:00:57;;;;;;;6.50;1.60;;;;;;;8.86;84.86;101591.22;5052285;28;20052;-71
2022/03/09 07:03:26;;;;;;;7.80;2.15;;;;;;;8.83;87.25;101601.41;5051747;28;20045;-74
2022/03/09 07:05:54;;;;;;;7.00;2.40;;;;;;;8.78;87.66;101597.72;5051333;28;20142;-71
2022/03/09 07:08:22;;;;;;;12.70;2.15;;;;;;;8.75;87.52;101592.38;5051436;28;20041;-73
2022/03/09 07:10:51;;;;;;;4.85;1.90;;;;;;;8.74;88.30;101598.34;5052057;28;20105;-72
2022/03/09 07:13:22;;;;;;;3.83;1.70;;;;;;;8.69;89.77;101592.09;5051070;28;20049;-72
2022/03/09 07:15:50;;;;;;;4.68;1.90;;;;;;;8.67;90.65;101589.41;5051873;28;20045;-72
2022/03/09 07:18:20;;;;;;;4.68;1.80;;;;;;;8.67;91.17;101594.56;5051438;28;20111;-72
2022/03/09 07:20:48;;;;;;;8.60;2.20;;;;;;;8.68;91.74;101582.56;5051749;28;20053;-73
2022/03/09 07:23:17;;;;;;;5.45;1.60;;;;;;;8.68;92.98;101582.56;5051199;28;20045;-73
2022/03/09 07:25:45;;;;;;;4.90;1.83;;;;;;;8.66;94.74;101587.66;5037324;28;20072;-73
2022/03/09 07:28:14;;;;;;;5.85;1.63;;;;;;;8.66;96.41;101571.25;5051151;28;20056;-73
2022/03/09 07:30:42;;;;;;;1.77;0.95;;;;;;;8.66;97.08;101576.44;5051127;28;20057;-72
2022/03/09 07:33:11;;;;;;;9.45;1.80;;;;;;;8.65;98.59;101574.66;5048606;28;20053;-72
2022/03/09 07:35:41;;;;;;;10.45;1.75;;;;;;;8.66;99.77;101567.03;5022453;28;20121;-72
2022/03/09 07:38:10;;;;;;;7.00;1.50;;;;;;;8.68;99.60;101574.81;5026149;28;20081;-72
2022/03/09 07:40:39;;;;;;;9.65;1.70;;;;;;;8.67;100.00;101566.19;5031359;28;20058;-72
2022/03/09 07:43:07;;;;;;;6.22;1.83;;;;;;;8.66;100.00;101569.59;5030539;28;20064;-72
2022/03/09 07:45:36;;;;;;;3.90;1.50;;;;;;;8.65;100.00;101564.34;5016091;28;20061;-72
2022/03/09 07:48:04;;;;;;;6.03;1.30;;;;;;;8.62;100.00;101562.50;5030630;28;20500;-72
2022/03/09 07:50:33;;;;;;;8.55;1.70;;;;;;;8.63;100.00;101568.53;5050939;28;20041;-73
2022/03/09 07:53:03;;;;;;;3.85;1.05;;;;;;;8.62;100.00;101569.38;5053448;28;20055;-73
2022/03/09 07:55:31;;;;;;;3.20;1.42;;;;;;;8.62;100.00;101561.63;5050974;28;20044;-73
2022/03/09 07:58:02;;;;;;;3.90;1.40;;;;;;;8.60;100.00;101559.84;5050972;28;20064;-72
2022/03/09 08:00:31;;;;;;;4.25;1.63;;;;;;;8.62;100.00;101561.63;5050035;28;20131;-72
2022/03/09 08:02:59;;;;;;;2.28;0.90;;;;;;;8.62;100.00;101554.75;5050185;28;20060;-73
2022/03/09 08:05:28;;;;;;;5.95;1.38;;;;;;;8.66;100.00;101555.78;5050201;28;20144;-72
2022/03/09 08:07:56;;;;;;;5.78;1.33;;;;;;;8.64;100.00;101554.84;5049549;28;20487;-72
2022/03/09 08:10:26;;;;;;;1.92;1.35;;;;;;;8.62;100.00;101548.72;5050465;28;20037;-72
2022/03/09 08:12:54;;;;;;;3.90;1.33;;;;;;;8.63;100.00;101556.53;5049579;28;20155;-72
2022/03/09 08:15:23;;;;;;;4.38;1.70;;;;;;;8.66;100.00;101560.94;5044408;28;20053;-72
2022/03/09 08:17:51;;;;;;;3.13;1.42;;;;;;;8.68;100.00;101554.16;5030800;28;20128;-71
2022/03/09 08:20:20;;;;;;;6.35;1.75;;;;;;;8.68;100.00;101554.16;5049751;28;20052;-72
2022/03/09 08:22:48;;;;;;;6.22;1.45;;;;;;;8.70;100.00;101552.56;5050051;28;20505;-71
2022/03/09 08:25:16;;;;;;;4.82;1.40;;;;;;;8.69;100.00;101551.69;5048534;28;20049;-72
2022/03/09 08:27:46;;;;;;;4.88;1.30;;;;;;;8.66;100.00;101540.31;5050010;28;20049;-72
2022/03/09 08:30:15;;;;;;;3.45;0.88;;;;;;;8.61;100.00;101540.06;5049357;28;20059;-73
2022/03/09 08:32:43;;;;;;;3.28;1.17;;;;;;;8.57;100.00;101536.47;5049961;28;20127;-72
2022/03/09 08:35:12;;;;;;;4.28;1.15;;;;;;;8.55;100.00;101543.25;5031921;28;20057;-73
2022/03/09 08:37:40;;;;;;;7.55;1.42;;;;;;;8.57;100.00;101545.91;5029530;28;20149;-71
2022/03/09 08:40:10;;;;;;;4.38;1.38;;;;;;;8.57;100.00;101549.38;5029107;28;20063;-72
2022/03/09 08:42:38;;;;;;;3.13;1.52;;;;;;;8.56;100.00;101555.31;5029538;28;20053;-73
2022/03/09 08:45:08;;;;;;;3.92;1.35;;;;;;;8.56;100.00;101544.13;5029178;28;20108;-72
2022/03/09 08:47:37;;;;;;;4.50;1.50;;;;;;;8.55;100.00;101553.56;5029450;28;20045;-72
2022/03/09 08:50:06;;;;;;;4.88;1.30;;;;;;;8.56;100.00;101547.59;5031566;28;20286;-73
2022/03/09 08:52:34;;;;;;;3.40;1.27;;;;;;;8.57;100.00;101546.78;5030371;28;20089;-73
2022/03/09 08:55:03;;;;;;;2.53;0.88;;;;;;;8.60;100.00;101544.34;5029625;28;20053;-73
2022/03/09 08:57:31;;;;;;;2.00;1.00;;;;;;;8.60;100.00;101546.06;5029718;28;20096;-74
2022/03/09 09:00:02;;;;;;;3.65;1.13;;;;;;;8.57;100.00;101554.53;5029700;28;20695;-72
2022/03/09 09:02:33;;;;;;;1.20;0.88;;;;;;;8.57;100.00;101553.66;5029198;28;20049;-72
2022/03/09 09:05:01;;;;;;;2.78;0.95;;;;;;;8.57;100.00;101559.69;5048424;28;20525;-72
2022/03/09 09:07:29;;;;;;;3.75;0.93;;;;;;;8.60;100.00;101552.09;5048854;28;20049;-72
2022/03/09 09:09:58;;;;;;;4.18;1.17;;;;;;;8.58;100.00;101558.00;5049178;28;20053;-72
2022/03/09 09:12:26;;;;;;;5.65;1.20;;;;;;;8.56;100.00;101554.44;5048941;28;20136;-72
2022/03/09 09:14:54;;;;;;;2.58;1.17;;;;;;;8.52;100.00;101553.44;5049362;28;20124;-72
2022/03/09 09:17:23;;;;;;;3.70;1.60;;;;;;;8.51;100.00;101555.91;5047677;28;20053;-72
2022/03/09 09:19:53;;;;;;;7.05;1.80;;;;;;;8.41;100.00;101541.69;5049060;28;20136;-72
2022/03/09 09:22:21;;;;;;;6.47;1.92;;;;;;;8.42;100.00;101548.59;5047650;28;20138;-71
2022/03/09 09:24:50;;;;;;;5.13;1.98;;;;;;;8.37;100.00;101542.28;5048120;28;20079;-72
2022/03/09 09:27:18;;;;;;;6.30;2.85;;;;;;;8.30;100.00;101540.22;5047749;28;20057;-71
2022/03/09 09:29:47;;;;;;;6.65;2.60;;;;;;;8.26;100.00;101539.16;5060825;28;20064;-72
2022/03/09 09:32:16;;;;;;;4.50;2.35;;;;;;;8.22;100.00;101546.66;5067565;28;20044;-74
2022/03/09 09:34:44;;;;;;;9.82;3.40;;;;;;;8.19;100.00;101547.38;5065458;28;20087;-74
2022/03/09 09:37:14;;;;;;;4.47;2.28;;;;;;;8.13;100.00;101547.97;5035575;28;20495;-71
2022/03/09 09:39:43;;;;;;;5.15;2.28;;;;;;;8.10;100.00;101546.91;5049113;28;20122;-74
2022/03/09 09:42:11;;;;;;;4.95;2.55;;;;;;;8.06;100.00;101543.28;5048183;28;20049;-72
2022/03/09 09:44:43;;;;;;;7.50;3.13;;;;;;;8.04;100.00;101546.56;5048849;28;20079;-73
2022/03/09 09:47:14;;;;;;;6.68;2.47;;;;;;;8.03;100.00;101550.84;5034294;28;20049;-73
2022/03/09 09:49:42;;;;;;;9.27;2.85;;;;;;;8.01;100.00;101552.47;5051965;28;20141;-74
2022/03/09 09:52:13;;;;;;;6.88;3.00;;;;;;;7.93;100.00;101540.88;5047596;28;20055;-73
2022/03/09 09:54:42;;;;;;;5.70;2.90;;;;;;;7.99;100.00;101554.06;5048901;28;20135;-74
2022/03/09 09:57:14;;;;;;;5.47;2.75;;;;;;;7.96;100.00;101553.91;5048098;28;20049;-74
2022/03/09 09:59:44;;;;;;;7.32;3.10;;;;;;;7.86;100.00;101549.09;5035391;28;20049;-73
2022/03/09 10:02:13;;;;;;;5.80;2.28;;;;;;;7.74;100.00;101551.88;5047745;28;20077;-73
2022/03/09 10:04:42;;;;;;;9.35;2.08;;;;;;;7.67;100.00;101548.13;5048319;28;20041;-75
2022/03/09 10:07:13;;;;;;;4.97;2.50;;;;;;;7.63;100.00;101548.75;5048578;28;20056;-73
2022/03/09 10:09:42;;;;;;;3.47;2.13;;;;;;;7.54;100.00;101548.25;5048218;28;20625;-73
2022/03/09 10:12:13;;;;;;;2.88;1.92;;;;;;;7.52;100.00;101549.84;5047516;28;20041;-74
2022/03/09 10:14:47;;;;;;;7.60;2.60;;;;;;;7.46;100.00;101537.50;5030823;28;20077;-74
2022/03/09 10:17:17;;;;;;;7.05;2.00;;;;;;;7.41;100.00;101541.53;5036447;28;20063;-74
2022/03/09 10:19:47;;;;;;;5.85;1.65;;;;;;;7.34;100.00;101545.44;5048198;28;20087;-74
2022/03/09 10:22:34;;;;;;;4.47;2.13;;;;;;;7.27;100.00;101545.91;5047771;28;20045;-73
2022/03/09 10:25:18;;;;;;;4.68;2.22;;;;;;;7.22;100.00;101542.22;5048246;28;20049;-75
2022/03/09 10:27:48;;;;;;;2.75;1.80;;;;;;;7.12;100.00;101543.41;5036878;28;20052;-74
2022/03/09 10:30:18;;;;;;;4.47;2.00;;;;;;;7.07;100.00;101534.50;5047854;28;20055;-74
2022/03/09 10:32:53;;;;;;;3.50;2.30;;;;;;;7.09;100.00;101532.91;5044354;28;20156;-74
2022/03/09 10:35:40;;;;;;;5.30;1.95;;;;;;;7.05;100.00;101543.81;4993878;28;20385;-74
2022/03/09 10:38:22;;;;;;;2.80;1.75;;;;;;;7.05;100.00;101540.38;5002552;28;20062;-73
2022/03/09 10:40:52;;;;;;;4.10;1.70;;;;;;;6.99;100.00;101532.31;5007784;28;20052;-74
2022/03/09 10:43:22;;;;;;;2.25;1.73;;;;;;;6.97;100.00;101531.34;5007277;28;20038;-73
2022/03/09 10:46:06;;;;;;;4.60;2.10;;;;;;;6.96;100.00;101539.84;5001933;28;20133;-74
2022/03/09 10:48:54;;;;;;;3.58;2.05;;;;;;;6.91;100.00;101532.75;5005735;28;20206;-74
2022/03/09 10:51:33;;;;;;;3.88;2.05;;;;;;;6.86;100.00;101526.47;5003166;28;20045;-72
2022/03/09 10:54:05;;;;;;;3.63;2.03;;;;;;;6.87;100.00;101529.91;5008748;28;20092;-73
2022/03/09 10:56:34;;;;;;;3.27;1.67;;;;;;;6.88;100.00;101530.00;5007128;28;20053;-72
2022/03/09 10:59:21;;;;;;;3.65;2.05;;;;;;;6.90;100.00;101525.84;5008858;28;20129;-71
2022/03/09 11:02:06;;;;;;;4.50;1.95;;;;;;;6.91;100.00;101522.47;5008644;28;20073;-72
2022/03/09 11:04:35;;;;;;;3.22;1.73;;;;;;;6.90;100.00;101525.84;5012101;28;20045;-72
2022/03/09 11:07:05;;;;;;;6.68;2.05;;;;;;;6.96;100.00;101529.56;5011697;28;20042;-73
2022/03/09 11:09:36;;;;;;;3.58;1.95;;;;;;;7.02;100.00;101527.34;5007178;28;20042;-72
2022/03/09 11:12:05;;;;;;;3.78;1.48;;;;;;;7.07;100.00;101531.06;4992527;28;20462;-70
2022/03/09 11:14:35;;;;;;;1.77;1.38;;;;;;;7.08;100.00;101530.28;5000189;28;20121;-71
2022/03/09 11:17:03;;;;;;;4.55;1.67;;;;;;;7.10;100.00;101528.63;5011438;28;20042;-71
2022/03/09 11:19:31;;;;;;;3.20;1.50;;;;;;;7.17;100.00;101530.78;5011442;28;20053;-71
2022/03/09 11:22:00;;;;;;;3.33;1.85;;;;;;;7.17;100.00;101530.78;5011134;28;20058;-71
2022/03/09 11:24:28;;;;;;;2.10;1.50;;;;;;;7.13;100.00;101524.56;5011064;28;20058;-71
2022/03/09 11:27:03;;;;;;;2.00;1.40;;;;;;;7.10;100.00;101523.50;5010669;28;20100;-71
2022/03/09 11:29:34;;;;;;;2.08;1.58;;;;;;;7.06;100.00;101526.72;5011471;28;20049;-72
2022/03/09 11:32:05;;;;;;;2.63;1.35;;;;;;;7.06;100.00;101521.56;4997678;28;20047;-71
2022/03/09 11:34:36;;;;;;;2.20;1.40;;;;;;;7.06;100.00;101524.16;5023953;28;20054;-71
2022/03/09 11:37:06;;;;;;;2.50;1.52;;;;;;;7.06;100.00;101516.44;5049593;28;20509;-72
2022/03/09 11:39:36;;;;;;;2.55;1.30;;;;;;;7.05;100.00;101524.94;5051042;28;20055;-71